sensor_id;sensor_type;location;lat;lon;timestamp;pressure;altitude;pressure_sealevel;temperature;humidity
55604;BME280;41468;48.838;9.330;2022-10-16T00:01:58;98191.38;;;15.68;100.00
55604;BME280;41468;48.838;9.330;2022-10-16T00:04:31;98199.44;;;15.52;100.00
55604;BME280;41468;48.838;9.330;2022-10-16T00:07:01;98202.06;;;15.63;100.00
55604;BME280;41468;48.838;9.330;2022-10-16T00:09:30;98192.69;;;15.56;100.00
55604;BME280;41468;48.838;9.330;2022-10-16T00:12:00;98197.75;;;15.62;100.00
55604;BME280;41468;48.838;9.330;2022-10-16T00:14:30;98194.22;;;15.61;100.00
55604;BME280;41468;48.838;9.330;2022-10-16T00:17:00;98186.22;;;15.74;100.00
55604;BME280;41468;48.838;9.330;2022-10-16T00:19:32;98189.13;;;15.60;100.00
55604;BME280;41468;48.838;9.330;2022-10-16T00:22:02;98189.13;;;15.60;100.00
55604;BME280;41468;48.838;9.330;2022-10-16T00:24:31;98189.13;;;15.60;100.00
55604;BME280;41468;48.838;9.330;2022-10-16T00:27:01;98191.53;;;15.54;100.00
55604;BME280;41468;48.838;9.330;2022-10-16T00:29:31;98187.63;;;15.51;100.00
55604;BME280;41468;48.838;9.330;2022-10-16T00:32:01;98182.88;;;15.55;100.00
55604;BME280;41468;48.838;9.330;2022-10-16T00:34:33;98183.59;;;15.60;100.00
55604;BME280;41468;48.838;9.330;2022-10-16T00:37:03;98194.97;;;15.65;100.00
55604;BME280;41468;48.838;9.330;2022-10-16T00:39:32;98193.00;;;15.66;100.00
55604;BME280;41468;48.838;9.330;2022-10-16T00:42:02;98196.22;;;15.57;100.00
55604;BME280;41468;48.838;9.330;2022-10-16T00:44:44;98191.50;;;15.57;100.00
55604;BME280;41468;48.838;9.330;2022-10-16T00:47:19;98200.91;;;15.60;100.00
55604;BME280;41468;48.838;9.330;2022-10-16T00:49:57;98197.75;;;15.62;100.00
55604;BME280;41468;48.838;9.330;2022-10-16T00:52:28;98205.03;;;15.45;100.00
55604;BME280;41468;48.838;9.330;2022-10-16T00:54:58;98202.56;;;15.54;100.00
55604;BME280;41468;48.838;9.330;2022-10-16T00:57:29;98209.31;;;15.49;100.00
55604;BME280;41468;48.838;9.330;2022-10-16T00:59:59;98202.56;;;15.54;100.00
55604;BME280;41468;48.838;9.330;2022-10-16T01:02:29;98198.81;;;15.37;100.00
55604;BME280;41468;48.838;9.330;2022-10-16T01:05:03;98200.03;;;15.32;100.00
55604;BME280;41468;48.838;9.330;2022-10-16T01:07:41;98201.97;;;15.35;100.00
55604;BME280;41468;48.838;9.330;2022-10-16T01:10:21;98209.00;;;15.40;100.00
55604;BME280;41468;48.838;9.330;2022-10-16T01:12:57;98222.41;;;15.42;100.00
55604;BME280;41468;48.838;9.330;2022-10-16T01:15:31;98219.97;;;15.47;100.00
55604;BME280;41468;48.838;9.330;2022-10-16T01:18:06;98212.63;;;15.33;100.00
55604;BME280;41468;48.838;9.330;2022-10-16T01:20:44;98217.69;;;15.39;100.00
55604;BME280;41468;48.838;9.330;2022-10-16T01:23:24;98221.91;;;15.47;100.00
55604;BME280;41468;48.838;9.330;2022-10-16T01:26:12;98223.91;;;15.46;100.00
55604;BME280;41468;48.838;9.330;2022-10-16T01:28:51;98219.53;;;15.49;100.00
55604;BME280;41468;48.838;9.330;2022-10-16T01:31:26;98211.72;;;15.47;100.00
55604;BME280;41468;48.838;9.330;2022-10-16T01:34:02;98212.41;;;15.55;100.00
55604;BME280;41468;48.838;9.330;2022-10-16T01:36:37;98216.72;;;15.56;100.00
55604;BME280;41468;48.838;9.330;2022-10-16T01:39:10;98220.41;;;15.42;100.00
55604;BME280;41468;48.838;9.330;2022-10-16T01:41:44;98218.72;;;15.52;100.00
55604;BME280;41468;48.838;9.330;2022-10-16T01:44:20;98217.66;;;15.42;100.00
55604;BME280;41468;48.838;9.330;2022-10-16T01:46:53;98208.19;;;15.43;100.00
55604;BME280;41468;48.838;9.330;2022-10-16T01:49:26;98199.91;;;15.43;100.00
55604;BME280;41468;48.838;9.330;2022-10-16T01:51:59;98207.06;;;15.37;100.00
55604;BME280;41468;48.838;9.330;2022-10-16T01:54:30;98205.03;;;15.45;100.00
55604;BME280;41468;48.838;9.330;2022-10-16T01:57:04;98201.13;;;15.42;100.00
55604;BME280;41468;48.838;9.330;2022-10-16T01:59:41;98210.28;;;15.32;100.00
55604;BME280;41468;48.838;9.330;2022-10-16T02:02:13;98208.28;;;15.32;100.00
55604;BME280;41468;48.838;9.330;2022-10-16T02:04:47;98207.47;;;15.35;100.00
55604;BME280;41468;48.838;9.330;2022-10-16T02:07:19;98194.84;;;15.38;100.00
55604;BME280;41468;48.838;9.330;2022-10-16T02:09:48;98193.69;;;15.35;100.00
55604;BME280;41468;48.838;9.330;2022-10-16T02:12:23;98191.75;;;15.32;100.00
55604;BME280;41468;48.838;9.330;2022-10-16T02:14:56;98197.75;;;15.24;100.00
55604;BME280;41468;48.838;9.330;2022-10-16T02:17:26;98190.94;;;15.35;100.00
55604;BME280;41468;48.838;9.330;2022-10-16T02:19:56;98198.47;;;15.31;100.00
55604;BME280;41468;48.838;9.330;2022-10-16T02:22:31;98193.34;;;15.33;100.00
55604;BME280;41468;48.838;9.330;2022-10-16T02:25:06;98199.53;;;15.41;100.00
55604;BME280;41468;48.838;9.330;2022-10-16T02:27:43;98205.06;;;15.41;100.00
55604;BME280;41468;48.838;9.330;2022-10-16T02:30:21;98204.81;;;15.25;100.00
55604;BME280;41468;48.838;9.330;2022-10-16T02:32:53;98206.06;;;15.20;100.00
55604;BME280;41468;48.838;9.330;2022-10-16T02:35:25;98205.25;;;15.23;100.00
55604;BME280;41468;48.838;9.330;2022-10-16T02:37:56;98204.09;;;15.21;100.00
55604;BME280;41468;48.838;9.330;2022-10-16T02:40:27;98204.03;;;15.24;100.00
55604;BME280;41468;48.838;9.330;2022-10-16T02:42:57;98194.94;;;15.31;100.00
55604;BME280;41468;48.838;9.330;2022-10-16T02:45:29;98203.31;;;15.20;100.00
55604;BME280;41468;48.838;9.330;2022-10-16T02:47:59;98192.25;;;15.24;100.00
55604;BME280;41468;48.838;9.330;2022-10-16T02:50:29;98206.94;;;15.10;100.00
55604;BME280;41468;48.838;9.330;2022-10-16T02:52:58;98199.75;;;15.20;100.00
55604;BME280;41468;48.838;9.330;2022-10-16T02:55:28;98209.59;;;15.21;100.00
55604;BME280;41468;48.838;9.330;2022-10-16T02:57:58;98211.50;;;15.27;100.00
55604;BME280;41468;48.838;9.330;2022-10-16T03:00:30;98209.94;;;15.26;100.00
55604;BME280;41468;48.838;9.330;2022-10-16T03:03:00;98209.19;;;15.22;100.00
55604;BME280;41468;48.838;9.330;2022-10-16T03:05:30;98206.75;;;15.28;100.00
55604;BME280;41468;48.838;9.330;2022-10-16T03:07:59;98206.75;;;15.31;100.00
55604;BME280;41468;48.838;9.330;2022-10-16T03:10:29;98209.25;;;15.15;100.00
55604;BME280;41468;48.838;9.330;2022-10-16T03:12:59;98221.41;;;15.21;100.00
55604;BME280;41468;48.838;9.330;2022-10-16T03:15:32;98214.81;;;15.08;100.00
55604;BME280;41468;48.838;9.330;2022-10-16T03:18:01;98212.47;;;15.06;100.00
55604;BME280;41468;48.838;9.330;2022-10-16T03:20:31;98212.47;;;15.06;100.00
55604;BME280;41468;48.838;9.330;2022-10-16T03:23:01;98220.66;;;15.13;100.00
55604;BME280;41468;48.838;9.330;2022-10-16T03:25:31;98214.75;;;15.15;100.00
55604;BME280;41468;48.838;9.330;2022-10-16T03:28:00;98213.66;;;15.05;100.00
55604;BME280;41468;48.838;9.330;2022-10-16T03:30:33;98217.09;;;15.20;100.00
55604;BME280;41468;48.838;9.330;2022-10-16T03:33:02;98220.91;;;15.30;100.00
55604;BME280;41468;48.838;9.330;2022-10-16T03:35:32;98223.03;;;15.11;100.00
55604;BME280;41468;48.838;9.330;2022-10-16T03:38:02;98218.25;;;15.19;100.00
55604;BME280;41468;48.838;9.330;2022-10-16T03:40:32;98219.84;;;15.20;100.00
55604;BME280;41468;48.838;9.330;2022-10-16T03:43:01;98211.66;;;15.09;100.00
55604;BME280;41468;48.838;9.330;2022-10-16T03:45:34;98213.94;;;15.18;100.00
55604;BME280;41468;48.838;9.330;2022-10-16T03:48:03;98210.94;;;15.02;100.00
55604;BME280;41468;48.838;9.330;2022-10-16T03:50:33;98216.09;;;14.96;100.00
55604;BME280;41468;48.838;9.330;2022-10-16T03:53:03;98214.97;;;14.90;100.00
55604;BME280;41468;48.838;9.330;2022-10-16T03:55:34;98216.47;;;14.98;100.00
55604;BME280;41468;48.838;9.330;2022-10-16T03:58:04;98224.31;;;15.00;100.00
55604;BME280;41468;48.838;9.330;2022-10-16T04:00:40;98225.78;;;15.11;100.00
55604;BME280;41468;48.838;9.330;2022-10-16T04:03:10;98222.66;;;15.13;100.00
55604;BME280;41468;48.838;9.330;2022-10-16T04:05:40;98225.41;;;15.13;100.00
55604;BME280;41468;48.838;9.330;2022-10-16T04:08:09;98225.03;;;15.11;100.00
55604;BME280;41468;48.838;9.330;2022-10-16T04:10:39;98226.63;;;15.08;100.00
55604;BME280;41468;48.838;9.330;2022-10-16T04:13:09;98228.19;;;15.09;100.00
55604;BME280;41468;48.838;9.330;2022-10-16T04:15:41;98230.56;;;15.07;100.00
55604;BME280;41468;48.838;9.330;2022-10-16T04:18:11;98234.44;;;15.13;100.00
55604;BME280;41468;48.838;9.330;2022-10-16T04:20:41;98235.31;;;15.07;100.00
55604;BME280;41468;48.838;9.330;2022-10-16T04:23:11;98236.56;;;14.95;100.00
55604;BME280;41468;48.838;9.330;2022-10-16T04:25:41;98235.38;;;14.96;100.00
55604;BME280;41468;48.838;9.330;2022-10-16T04:28:11;98233.84;;;14.92;100.00
55604;BME280;41468;48.838;9.330;2022-10-16T04:30:43;98225.63;;;14.84;100.00
55604;BME280;41468;48.838;9.330;2022-10-16T04:33:13;98231.50;;;14.86;100.00
55604;BME280;41468;48.838;9.330;2022-10-16T04:35:42;98228.41;;;14.81;100.00
55604;BME280;41468;48.838;9.330;2022-10-16T04:38:12;98229.91;;;14.89;100.00
55604;BME280;41468;48.838;9.330;2022-10-16T04:40:42;98231.13;;;14.84;100.00
55604;BME280;41468;48.838;9.330;2022-10-16T04:43:12;98241.81;;;14.75;100.00
55604;BME280;41468;48.838;9.330;2022-10-16T04:45:44;98240.25;;;14.74;100.00
55604;BME280;41468;48.838;9.330;2022-10-16T04:48:14;98247.25;;;14.82;100.00
55604;BME280;41468;48.838;9.330;2022-10-16T04:50:44;98256.38;;;14.76;100.00
55604;BME280;41468;48.838;9.330;2022-10-16T04:53:20;98245.31;;;14.79;100.00
55604;BME280;41468;48.838;9.330;2022-10-16T04:55:50;98253.59;;;14.76;100.00
55604;BME280;41468;48.838;9.330;2022-10-16T04:58:20;98248.94;;;14.69;100.00
55604;BME280;41468;48.838;9.330;2022-10-16T05:00:52;98255.22;;;14.70;100.00
55604;BME280;41468;48.838;9.330;2022-10-16T05:03:22;98256.00;;;14.70;100.00
55604;BME280;41468;48.838;9.330;2022-10-16T05:05:52;98259.09;;;14.79;100.00
55604;BME280;41468;48.838;9.330;2022-10-16T05:08:22;98272.41;;;14.88;100.00
55604;BME280;41468;48.838;9.330;2022-10-16T05:10:51;98265.31;;;14.90;100.00
55604;BME280;41468;48.838;9.330;2022-10-16T05:13:21;98266.03;;;14.98;100.00
55604;BME280;41468;48.838;9.330;2022-10-16T05:15:53;98278.66;;;14.92;100.00
55604;BME280;41468;48.838;9.330;2022-10-16T05:18:23;98275.19;;;14.84;100.00
55604;BME280;41468;48.838;9.330;2022-10-16T05:20:53;98281.94;;;14.73;100.00
55604;BME280;41468;48.838;9.330;2022-10-16T05:23:23;98267.03;;;14.66;100.00
55604;BME280;41468;48.838;9.330;2022-10-16T05:25:53;98262.66;;;14.76;100.00
55604;BME280;41468;48.838;9.330;2022-10-16T05:28:25;98267.41;;;14.65;100.00
55604;BME280;41468;48.838;9.330;2022-10-16T05:30:59;98261.16;;;14.61;100.00
55604;BME280;41468;48.838;9.330;2022-10-16T05:33:33;98263.56;;;14.52;100.00
55604;BME280;41468;48.838;9.330;2022-10-16T05:36:03;98265.47;;;14.62;100.00
55604;BME280;41468;48.838;9.330;2022-10-16T05:38:34;98270.19;;;14.61;100.00
55604;BME280;41468;48.838;9.330;2022-10-16T05:41:05;98264.75;;;14.51;100.00
55604;BME280;41468;48.838;9.330;2022-10-16T05:43:35;98270.16;;;14.65;100.00
55604;BME280;41468;48.838;9.330;2022-10-16T05:46:07;98262.00;;;14.51;100.00
55604;BME280;41468;48.838;9.330;2022-10-16T05:48:36;98269.84;;;14.52;100.00
55604;BME280;41468;48.838;9.330;2022-10-16T05:51:08;98283.56;;;14.59;100.00
55604;BME280;41468;48.838;9.330;2022-10-16T05:53:39;98279.63;;;14.60;100.00
55604;BME280;41468;48.838;9.330;2022-10-16T05:56:10;98279.69;;;14.53;100.00
55604;BME280;41468;48.838;9.330;2022-10-16T05:58:41;98280.78;;;14.70;100.00
55604;BME280;41468;48.838;9.330;2022-10-16T06:01:15;98282.78;;;14.59;100.00
55604;BME280;41468;48.838;9.330;2022-10-16T06:03:45;98283.59;;;14.56;100.00
55604;BME280;41468;48.838;9.330;2022-10-16T06:06:16;98298.94;;;14.50;100.00
55604;BME280;41468;48.838;9.330;2022-10-16T06:08:47;98295.31;;;14.67;100.00
55604;BME280;41468;48.838;9.330;2022-10-16T06:11:19;98300.06;;;14.70;100.00
55604;BME280;41468;48.838;9.330;2022-10-16T06:13:50;98297.69;;;14.72;100.00
55604;BME280;41468;48.838;9.330;2022-10-16T06:16:24;98302.38;;;14.75;100.00
55604;BME280;41468;48.838;9.330;2022-10-16T06:18:55;98289.88;;;14.53;100.00
55604;BME280;41468;48.838;9.330;2022-10-16T06:21:27;98306.34;;;14.71;100.00
55604;BME280;41468;48.838;9.330;2022-10-16T06:23:57;98305.94;;;14.65;100.00
55604;BME280;41468;48.838;9.330;2022-10-16T06:26:29;98309.50;;;14.69;100.00
55604;BME280;41468;48.838;9.330;2022-10-16T06:29:01;98314.19;;;14.72;100.00
55604;BME280;41468;48.838;9.330;2022-10-16T06:31:34;98323.63;;;14.71;100.00
55604;BME280;41468;48.838;9.330;2022-10-16T06:34:04;98326.00;;;14.62;100.00
55604;BME280;41468;48.838;9.330;2022-10-16T06:36:36;98326.00;;;14.62;100.00
55604;BME280;41468;48.838;9.330;2022-10-16T06:39:06;98315.81;;;14.59;100.00
55604;BME280;41468;48.838;9.330;2022-10-16T06:41:36;98324.84;;;14.59;100.00
55604;BME280;41468;48.838;9.330;2022-10-16T06:44:06;98322.84;;;14.63;100.00
55604;BME280;41468;48.838;9.330;2022-10-16T06:46:39;98324.44;;;14.64;100.00
55604;BME280;41468;48.838;9.330;2022-10-16T06:49:12;98310.63;;;14.79;100.00
55604;BME280;41468;48.838;9.330;2022-10-16T06:51:48;98329.50;;;14.77;100.00
55604;BME280;41468;48.838;9.330;2022-10-16T06:54:18;98344.00;;;14.84;100.00
55604;BME280;41468;48.838;9.330;2022-10-16T06:56:47;98347.16;;;14.86;100.00
55604;BME280;41468;48.838;9.330;2022-10-16T06:59:17;98340.88;;;14.86;100.00
55604;BME280;41468;48.838;9.330;2022-10-16T07:01:49;98356.16;;;14.94;100.00
55604;BME280;41468;48.838;9.330;2022-10-16T07:04:19;98355.41;;;14.86;100.00
55604;BME280;41468;48.838;9.330;2022-10-16T07:06:49;98360.59;;;14.77;100.00
55604;BME280;41468;48.838;9.330;2022-10-16T07:09:18;98366.50;;;14.72;100.00
55604;BME280;41468;48.838;9.330;2022-10-16T07:11:48;98355.41;;;14.86;100.00
55604;BME280;41468;48.838;9.330;2022-10-16T07:14:19;98363.31;;;14.81;100.00
55604;BME280;41468;48.838;9.330;2022-10-16T07:16:52;98369.94;;;14.87;100.00
55604;BME280;41468;48.838;9.330;2022-10-16T07:19:22;98367.91;;;14.98;100.00
55604;BME280;41468;48.838;9.330;2022-10-16T07:21:57;98373.00;;;15.07;100.00
55604;BME280;41468;48.838;9.330;2022-10-16T07:24:27;98373.72;;;15.18;100.00
55604;BME280;41468;48.838;9.330;2022-10-16T07:26:57;98381.56;;;15.23;100.00
55604;BME280;41468;48.838;9.330;2022-10-16T07:29:26;98385.91;;;15.17;100.00
55604;BME280;41468;48.838;9.330;2022-10-16T07:31:59;98393.78;;;15.19;100.00
55604;BME280;41468;48.838;9.330;2022-10-16T07:34:28;98400.84;;;15.20;100.00
55604;BME280;41468;48.838;9.330;2022-10-16T07:36:58;98396.97;;;15.13;100.00
55604;BME280;41468;48.838;9.330;2022-10-16T07:39:28;98405.19;;;15.17;100.00
55604;BME280;41468;48.838;9.330;2022-10-16T07:41:58;98406.38;;;15.16;100.00
55604;BME280;41468;48.838;9.330;2022-10-16T07:44:27;98417.06;;;15.03;100.00
55604;BME280;41468;48.838;9.330;2022-10-16T07:47:00;98410.41;;;15.01;100.00
55604;BME280;41468;48.838;9.330;2022-10-16T07:49:29;98414.38;;;14.96;100.00
55604;BME280;41468;48.838;9.330;2022-10-16T07:51:59;98413.50;;;15.06;100.00
55604;BME280;41468;48.838;9.330;2022-10-16T07:54:29;98407.66;;;15.04;100.00
55604;BME280;41468;48.838;9.330;2022-10-16T07:56:58;98418.25;;;15.09;100.00
55604;BME280;41468;48.838;9.330;2022-10-16T07:59:28;98417.00;;;15.14;100.00
55604;BME280;41468;48.838;9.330;2022-10-16T08:02:00;98426.44;;;15.17;100.00
55604;BME280;41468;48.838;9.330;2022-10-16T08:04:30;98422.13;;;15.16;100.00
55604;BME280;41468;48.838;9.330;2022-10-16T08:07:00;98415.47;;;15.13;100.00
55604;BME280;41468;48.838;9.330;2022-10-16T08:09:30;98428.75;;;15.25;100.00
55604;BME280;41468;48.838;9.330;2022-10-16T08:11:59;98419.31;;;15.26;100.00
55604;BME280;41468;48.838;9.330;2022-10-16T08:14:30;98421.63;;;15.35;100.00
55604;BME280;41468;48.838;9.330;2022-10-16T08:17:03;98420.34;;;15.47;100.00
55604;BME280;41468;48.838;9.330;2022-10-16T08:19:32;98428.19;;;15.52;100.00
55604;BME280;41468;48.838;9.330;2022-10-16T08:22:02;98423.06;;;15.54;100.00
55604;BME280;41468;48.838;9.330;2022-10-16T08:24:32;98430.88;;;15.66;100.00
55604;BME280;41468;48.838;9.330;2022-10-16T08:27:03;98428.09;;;15.66;100.00
55604;BME280;41468;48.838;9.330;2022-10-16T08:29:33;98426.84;;;15.74;100.00
55604;BME280;41468;48.838;9.330;2022-10-16T08:32:06;98420.44;;;15.92;100.00
55604;BME280;41468;48.838;9.330;2022-10-16T08:34:36;98434.69;;;16.28;100.00
55604;BME280;41468;48.838;9.330;2022-10-16T08:37:05;98445.94;;;17.17;100.00
55604;BME280;41468;48.838;9.330;2022-10-16T08:39:37;98452.94;;;17.25;96.37
55604;BME280;41468;48.838;9.330;2022-10-16T08:42:28;98462.38;;;17.27;97.96
55604;BME280;41468;48.838;9.330;2022-10-16T08:45:12;98449.69;;;17.30;96.01
55604;BME280;41468;48.838;9.330;2022-10-16T08:47:56;98455.53;;;17.36;95.56
55604;BME280;41468;48.838;9.330;2022-10-16T08:50:31;98455.78;;;17.45;95.43
55604;BME280;41468;48.838;9.330;2022-10-16T08:53:03;98457.41;;;17.42;94.89
55604;BME280;41468;48.838;9.330;2022-10-16T08:55:38;98457.56;;;17.31;94.25
55604;BME280;41468;48.838;9.330;2022-10-16T08:58:12;98462.31;;;17.31;93.96
55604;BME280;41468;48.838;9.330;2022-10-16T09:00:45;98460.94;;;17.16;95.11
55604;BME280;41468;48.838;9.330;2022-10-16T09:03:27;98463.44;;;17.06;96.59
55604;BME280;41468;48.838;9.330;2022-10-16T09:06:10;98458.75;;;17.00;96.94
55604;BME280;41468;48.838;9.330;2022-10-16T09:08:54;98460.41;;;16.94;97.64
55604;BME280;41468;48.838;9.330;2022-10-16T09:11:34;98465.94;;;16.94;95.65
55604;BME280;41468;48.838;9.330;2022-10-16T09:14:17;98467.78;;;17.04;95.89
55604;BME280;41468;48.838;9.330;2022-10-16T09:16:57;98466.56;;;17.08;95.65
55604;BME280;41468;48.838;9.330;2022-10-16T09:19:38;98474.03;;;17.12;95.73
55604;BME280;41468;48.838;9.330;2022-10-16T09:22:12;98471.97;;;17.16;96.68
55604;BME280;41468;48.838;9.330;2022-10-16T09:24:48;98459.38;;;17.15;94.92
55604;BME280;41468;48.838;9.330;2022-10-16T09:27:20;98462.91;;;17.73;93.22
55604;BME280;41468;48.838;9.330;2022-10-16T09:29:51;98465.22;;;18.02;90.88
55604;BME280;41468;48.838;9.330;2022-10-16T09:32:25;98481.47;;;18.47;89.94
55604;BME280;41468;48.838;9.330;2022-10-16T09:35:01;98483.56;;;19.22;87.75
55604;BME280;41468;48.838;9.330;2022-10-16T09:37:31;98491.59;;;19.57;82.36
55604;BME280;41468;48.838;9.330;2022-10-16T09:40:01;98497.34;;;19.46;81.64
55604;BME280;41468;48.838;9.330;2022-10-16T09:42:35;98508.69;;;19.51;79.06
55604;BME280;41468;48.838;9.330;2022-10-16T09:45:21;98496.41;;;19.52;78.87
55604;BME280;41468;48.838;9.330;2022-10-16T09:47:51;98497.66;;;19.32;78.68
55604;BME280;41468;48.838;9.330;2022-10-16T09:50:27;98496.03;;;19.14;77.86
55604;BME280;41468;48.838;9.330;2022-10-16T09:53:08;98494.88;;;19.12;77.86
55604;BME280;41468;48.838;9.330;2022-10-16T09:55:48;98490.00;;;18.99;77.07
55604;BME280;41468;48.838;9.330;2022-10-16T09:58:21;98493.09;;;19.01;77.85
55604;BME280;41468;48.838;9.330;2022-10-16T10:00:53;98496.13;;;19.47;75.88
55604;BME280;41468;48.838;9.330;2022-10-16T10:03:37;98497.41;;;19.62;75.78
55604;BME280;41468;48.838;9.330;2022-10-16T10:06:21;98496.56;;;20.31;74.32
55604;BME280;41468;48.838;9.330;2022-10-16T10:09:03;98498.47;;;20.50;73.45
55604;BME280;41468;48.838;9.330;2022-10-16T10:11:42;98502.81;;;21.10;70.71
55604;BME280;41468;48.838;9.330;2022-10-16T10:14:17;98504.47;;;21.36;68.26
55604;BME280;41468;48.838;9.330;2022-10-16T10:16:48;98508.97;;;21.17;66.79
55604;BME280;41468;48.838;9.330;2022-10-16T10:19:23;98502.34;;;20.98;67.96
55604;BME280;41468;48.838;9.330;2022-10-16T10:21:58;98519.91;;;21.24;69.31
55604;BME280;41468;48.838;9.330;2022-10-16T10:24:31;98513.19;;;22.75;65.79
55604;BME280;41468;48.838;9.330;2022-10-16T10:27:09;98508.06;;;23.18;59.66
55604;BME280;41468;48.838;9.330;2022-10-16T10:29:53;98513.16;;;23.10;61.92
55604;BME280;41468;48.838;9.330;2022-10-16T10:32:33;98516.50;;;24.30;57.42
55604;BME280;41468;48.838;9.330;2022-10-16T10:35:15;98517.22;;;24.98;55.44
55604;BME280;41468;48.838;9.330;2022-10-16T10:38:00;98515.34;;;24.77;53.90
55604;BME280;41468;48.838;9.330;2022-10-16T10:40:42;98515.28;;;24.40;54.76
55604;BME280;41468;48.838;9.330;2022-10-16T10:43:29;98518.63;;;24.07;54.75
55604;BME280;41468;48.838;9.330;2022-10-16T10:46:05;98520.56;;;23.88;56.37
55604;BME280;41468;48.838;9.330;2022-10-16T10:48:54;98508.50;;;24.69;55.23
55604;BME280;41468;48.838;9.330;2022-10-16T10:51:31;98499.59;;;25.44;54.09
55604;BME280;41468;48.838;9.330;2022-10-16T10:54:13;98517.19;;;24.71;54.75
55604;BME280;41468;48.838;9.330;2022-10-16T10:56:48;98511.06;;;25.46;53.49
55604;BME280;41468;48.838;9.330;2022-10-16T10:59:46;98513.56;;;27.60;47.73
55604;BME280;41468;48.838;9.330;2022-10-16T11:02:23;98514.19;;;29.49;43.32
55604;BME280;41468;48.838;9.330;2022-10-16T11:05:27;98508.50;;;30.44;40.65
55604;BME280;41468;48.838;9.330;2022-10-16T11:08:02;98514.19;;;31.49;38.29
55604;BME280;41468;48.838;9.330;2022-10-16T11:10:44;98511.75;;;33.13;35.68
55604;BME280;41468;48.838;9.330;2022-10-16T11:13:24;98509.28;;;33.69;35.99
55604;BME280;41468;48.838;9.330;2022-10-16T11:15:59;98502.34;;;34.44;35.59
55604;BME280;41468;48.838;9.330;2022-10-16T11:18:37;98495.41;;;34.39;34.85
55604;BME280;41468;48.838;9.330;2022-10-16T11:21:09;98491.31;;;33.61;35.72
55604;BME280;41468;48.838;9.330;2022-10-16T11:23:44;98481.53;;;32.74;36.69
55604;BME280;41468;48.838;9.330;2022-10-16T11:26:21;98482.94;;;32.56;36.44
55604;BME280;41468;48.838;9.330;2022-10-16T11:28:54;98484.22;;;33.02;36.88
55604;BME280;41468;48.838;9.330;2022-10-16T11:31:29;98479.41;;;33.63;35.83
55604;BME280;41468;48.838;9.330;2022-10-16T11:34:08;98477.19;;;33.50;34.74
55604;BME280;41468;48.838;9.330;2022-10-16T11:36:47;98466.63;;;33.81;34.56
55604;BME280;41468;48.838;9.330;2022-10-16T11:39:21;98474.94;;;33.43;35.11
55604;BME280;41468;48.838;9.330;2022-10-16T11:41:56;98470.34;;;32.46;36.22
55604;BME280;41468;48.838;9.330;2022-10-16T11:44:44;98480.16;;;32.28;37.47
55604;BME280;41468;48.838;9.330;2022-10-16T11:47:27;98468.88;;;32.22;37.21
55604;BME280;41468;48.838;9.330;2022-10-16T11:50:23;98481.25;;;31.06;38.05
55604;BME280;41468;48.838;9.330;2022-10-16T11:53:01;98472.28;;;31.36;38.14
55604;BME280;41468;48.838;9.330;2022-10-16T11:55:36;98463.34;;;29.95;40.10
55604;BME280;41468;48.838;9.330;2022-10-16T11:58:21;98469.97;;;29.92;40.60
55604;BME280;41468;48.838;9.330;2022-10-16T12:00:59;98466.25;;;29.75;41.06
55604;BME280;41468;48.838;9.330;2022-10-16T12:03:33;98472.88;;;30.03;40.05
55604;BME280;41468;48.838;9.330;2022-10-16T12:06:25;98462.13;;;29.38;40.07
55604;BME280;41468;48.838;9.330;2022-10-16T12:08:58;98469.03;;;29.11;41.15
55604;BME280;41468;48.838;9.330;2022-10-16T12:11:35;98468.91;;;28.33;43.58
55604;BME280;41468;48.838;9.330;2022-10-16T12:17:35;98456.03;;;27.41;45.43
55604;BME280;41468;48.838;9.330;2022-10-16T12:20:24;98456.41;;;27.04;46.60
55604;BME280;41468;48.838;9.330;2022-10-16T12:22:58;98460.91;;;26.33;49.55
55604;BME280;41468;48.838;9.330;2022-10-16T12:25:31;98457.00;;;25.73;50.52
55604;BME280;41468;48.838;9.330;2022-10-16T12:28:03;98457.16;;;25.27;53.27
55604;BME280;41468;48.838;9.330;2022-10-16T12:30:35;98449.28;;;25.07;53.38
55604;BME280;41468;48.838;9.330;2022-10-16T12:33:20;98456.59;;;24.31;57.10
55604;BME280;41468;48.838;9.330;2022-10-16T12:35:51;98451.84;;;23.91;58.24
55604;BME280;41468;48.838;9.330;2022-10-16T12:38:25;98460.22;;;24.00;59.61
55604;BME280;41468;48.838;9.330;2022-10-16T12:40:58;98453.00;;;23.72;59.23
55604;BME280;41468;48.838;9.330;2022-10-16T12:43:39;98458.03;;;23.86;58.91
55604;BME280;41468;48.838;9.330;2022-10-16T12:46:36;98458.28;;;23.69;58.61
55604;BME280;41468;48.838;9.330;2022-10-16T12:49:21;98462.69;;;23.49;60.18
55604;BME280;41468;48.838;9.330;2022-10-16T12:51:52;98460.47;;;23.43;60.43
55604;BME280;41468;48.838;9.330;2022-10-16T12:54:26;98466.94;;;23.09;62.50
55604;BME280;41468;48.838;9.330;2022-10-16T12:57:09;98463.53;;;23.36;63.23
55604;BME280;41468;48.838;9.330;2022-10-16T12:59:53;98458.59;;;23.72;61.73
55604;BME280;41468;48.838;9.330;2022-10-16T13:05:48;98479.44;;;23.89;60.19
55604;BME280;41468;48.838;9.330;2022-10-16T13:08:39;98480.38;;;23.95;59.61
55604;BME280;41468;48.838;9.330;2022-10-16T13:11:19;98485.56;;;23.65;59.79
55604;BME280;41468;48.838;9.330;2022-10-16T13:14:16;98488.31;;;23.56;58.56
55604;BME280;41468;48.838;9.330;2022-10-16T13:16:55;98487.56;;;23.56;60.34
55604;BME280;41468;48.838;9.330;2022-10-16T13:19:35;98482.75;;;23.65;60.18
55604;BME280;41468;48.838;9.330;2022-10-16T13:22:14;98490.69;;;23.67;58.67
55604;BME280;41468;48.838;9.330;2022-10-16T13:24:56;98479.78;;;23.51;59.77
55604;BME280;41468;48.838;9.330;2022-10-16T13:27:41;98478.84;;;23.54;59.41
55604;BME280;41468;48.838;9.330;2022-10-16T13:30:17;98479.59;;;23.45;59.78
55604;BME280;41468;48.838;9.330;2022-10-16T13:32:59;98479.56;;;23.23;60.73
55604;BME280;41468;48.838;9.330;2022-10-16T13:35:33;98485.50;;;23.03;60.45